sensor_id;sensor_type;location;lat;lon;timestamp;temperature;humidity
35920;DHT22;36160;53.370;-6.196;2022-10-30T00:00:18;13.50;99.90
35920;DHT22;36160;53.370;-6.196;2022-10-30T00:02:47;13.50;99.90
35920;DHT22;36160;53.370;-6.196;2022-10-30T00:05:14;13.30;99.90
35920;DHT22;36160;53.370;-6.196;2022-10-30T00:07:40;13.30;99.90
35920;DHT22;36160;53.370;-6.196;2022-10-30T00:10:06;13.40;99.90
35920;DHT22;36160;53.370;-6.196;2022-10-30T00:12:31;13.40;99.90
35920;DHT22;36160;53.370;-6.196;2022-10-30T00:14:57;13.40;99.90
35920;DHT22;36160;53.370;-6.196;2022-10-30T00:17:23;13.30;99.90
35920;DHT22;36160;53.370;-6.196;2022-10-30T00:19:48;13.30;99.90
35920;DHT22;36160;53.370;-6.196;2022-10-30T00:22:14;13.40;99.90
35920;DHT22;36160;53.370;-6.196;2022-10-30T00:24:40;13.30;99.90
35920;DHT22;36160;53.370;-6.196;2022-10-30T00:27:05;13.20;99.90
35920;DHT22;36160;53.370;-6.196;2022-10-30T00:29:31;13.20;99.90
35920;DHT22;36160;53.370;-6.196;2022-10-30T00:31:57;13.20;99.90
35920;DHT22;36160;53.370;-6.196;2022-10-30T00:34:22;13.20;99.90
35920;DHT22;36160;53.370;-6.196;2022-10-30T00:36:48;13.20;99.90
35920;DHT22;36160;53.370;-6.196;2022-10-30T00:39:14;13.20;99.90
35920;DHT22;36160;53.370;-6.196;2022-10-30T00:41:39;13.10;99.90
35920;DHT22;36160;53.370;-6.196;2022-10-30T00:46:59;13.10;99.90
35920;DHT22;36160;53.370;-6.196;2022-10-30T00:49:32;13.10;99.90
35920;DHT22;36160;53.370;-6.196;2022-10-30T00:51:59;13.10;99.90
35920;DHT22;36160;53.370;-6.196;2022-10-30T00:54:27;13.10;99.90
35920;DHT22;36160;53.370;-6.196;2022-10-30T00:56:53;13.00;99.90
35920;DHT22;36160;53.370;-6.196;2022-10-30T00:59:25;13.00;99.90
35920;DHT22;36160;53.370;-6.196;2022-10-30T01:01:52;13.10;99.90
35920;DHT22;36160;53.370;-6.196;2022-10-30T01:04:19;13.10;99.90
35920;DHT22;36160;53.370;-6.196;2022-10-30T01:06:47;13.00;99.90
35920;DHT22;36160;53.370;-6.196;2022-10-30T01:09:17;13.10;99.90
35920;DHT22;36160;53.370;-6.196;2022-10-30T01:11:43;13.10;99.90
35920;DHT22;36160;53.370;-6.196;2022-10-30T01:14:11;13.00;99.90
35920;DHT22;36160;53.370;-6.196;2022-10-30T01:27:39;13.00;99.90
35920;DHT22;36160;53.370;-6.196;2022-10-30T01:32:46;13.00;99.90
35920;DHT22;36160;53.370;-6.196;2022-10-30T01:35:22;13.00;99.90
35920;DHT22;36160;53.370;-6.196;2022-10-30T01:40:24;13.10;99.90
35920;DHT22;36160;53.370;-6.196;2022-10-30T01:42:52;13.10;99.90
35920;DHT22;36160;53.370;-6.196;2022-10-30T01:48:06;13.00;99.90
35920;DHT22;36160;53.370;-6.196;2022-10-30T01:50:58;13.10;99.90
35920;DHT22;36160;53.370;-6.196;2022-10-30T01:54:02;13.10;99.90
35920;DHT22;36160;53.370;-6.196;2022-10-30T01:57:11;13.10;99.90
35920;DHT22;36160;53.370;-6.196;2022-10-30T02:02:17;13.10;99.90
35920;DHT22;36160;53.370;-6.196;2022-10-30T02:04:43;13.20;99.90
35920;DHT22;36160;53.370;-6.196;2022-10-30T02:07:10;13.00;99.90
35920;DHT22;36160;53.370;-6.196;2022-10-30T02:09:36;13.20;99.90
35920;DHT22;36160;53.370;-6.196;2022-10-30T02:12:02;13.10;99.90
35920;DHT22;36160;53.370;-6.196;2022-10-30T02:14:38;13.10;99.90
35920;DHT22;36160;53.370;-6.196;2022-10-30T02:17:05;13.10;99.90
35920;DHT22;36160;53.370;-6.196;2022-10-30T02:19:32;13.00;99.90
35920;DHT22;36160;53.370;-6.196;2022-10-30T02:21:58;13.20;99.90
35920;DHT22;36160;53.370;-6.196;2022-10-30T02:24:24;13.10;99.90
35920;DHT22;36160;53.370;-6.196;2022-10-30T02:26:49;13.20;99.90
35920;DHT22;36160;53.370;-6.196;2022-10-30T02:29:15;13.10;99.90
35920;DHT22;36160;53.370;-6.196;2022-10-30T02:31:45;13.10;99.90
35920;DHT22;36160;53.370;-6.196;2022-10-30T02:34:11;13.10;99.90
35920;DHT22;36160;53.370;-6.196;2022-10-30T02:36:36;13.20;99.90
35920;DHT22;36160;53.370;-6.196;2022-10-30T02:39:02;13.10;99.90
35920;DHT22;36160;53.370;-6.196;2022-10-30T02:41:28;13.20;99.90
35920;DHT22;36160;53.370;-6.196;2022-10-30T02:43:54;13.20;99.90
35920;DHT22;36160;53.370;-6.196;2022-10-30T02:46:20;13.20;99.90
35920;DHT22;36160;53.370;-6.196;2022-10-30T02:48:46;13.20;99.90
35920;DHT22;36160;53.370;-6.196;2022-10-30T02:51:12;13.30;99.90
35920;DHT22;36160;53.370;-6.196;2022-10-30T02:53:37;13.20;99.90
35920;DHT22;36160;53.370;-6.196;2022-10-30T02:56:05;13.40;99.90
35920;DHT22;36160;53.370;-6.196;2022-10-30T02:58:31;13.30;99.90
35920;DHT22;36160;53.370;-6.196;2022-10-30T03:00:56;13.30;99.90
35920;DHT22;36160;53.370;-6.196;2022-10-30T03:03:22;13.30;99.90
35920;DHT22;36160;53.370;-6.196;2022-10-30T03:05:48;13.30;99.90
35920;DHT22;36160;53.370;-6.196;2022-10-30T03:08:13;13.30;99.90
35920;DHT22;36160;53.370;-6.196;2022-10-30T03:10:39;13.40;99.90
35920;DHT22;36160;53.370;-6.196;2022-10-30T03:13:05;13.40;99.90
35920;DHT22;36160;53.370;-6.196;2022-10-30T03:15:30;13.20;99.90
35920;DHT22;36160;53.370;-6.196;2022-10-30T03:17:56;13.20;99.90
35920;DHT22;36160;53.370;-6.196;2022-10-30T03:20:22;13.20;99.90
35920;DHT22;36160;53.370;-6.196;2022-10-30T03:22:47;13.40;99.90
35920;DHT22;36160;53.370;-6.196;2022-10-30T03:25:13;13.50;99.90
35920;DHT22;36160;53.370;-6.196;2022-10-30T03:27:38;13.40;99.90
35920;DHT22;36160;53.370;-6.196;2022-10-30T03:30:05;13.40;99.90
35920;DHT22;36160;53.370;-6.196;2022-10-30T03:32:30;13.50;99.90
35920;DHT22;36160;53.370;-6.196;2022-10-30T03:34:56;13.40;99.90
35920;DHT22;36160;53.370;-6.196;2022-10-30T03:37:22;13.40;99.90
35920;DHT22;36160;53.370;-6.196;2022-10-30T03:39:47;13.50;99.90
35920;DHT22;36160;53.370;-6.196;2022-10-30T03:42:13;13.50;99.90
35920;DHT22;36160;53.370;-6.196;2022-10-30T03:44:38;13.50;99.90
35920;DHT22;36160;53.370;-6.196;2022-10-30T03:47:04;13.40;99.90
35920;DHT22;36160;53.370;-6.196;2022-10-30T03:49:30;13.60;99.90
35920;DHT22;36160;53.370;-6.196;2022-10-30T03:51:55;13.60;99.90
35920;DHT22;36160;53.370;-6.196;2022-10-30T03:54:21;13.60;99.90
35920;DHT22;36160;53.370;-6.196;2022-10-30T03:56:46;13.60;99.90
35920;DHT22;36160;53.370;-6.196;2022-10-30T03:59:12;13.70;99.90
35920;DHT22;36160;53.370;-6.196;2022-10-30T04:01:38;13.60;99.90
35920;DHT22;36160;53.370;-6.196;2022-10-30T04:04:03;13.70;99.90
35920;DHT22;36160;53.370;-6.196;2022-10-30T04:06:29;13.50;99.90
35920;DHT22;36160;53.370;-6.196;2022-10-30T04:08:55;13.70;99.90
35920;DHT22;36160;53.370;-6.196;2022-10-30T04:11:20;13.60;99.90
35920;DHT22;36160;53.370;-6.196;2022-10-30T04:13:46;13.60;99.90
35920;DHT22;36160;53.370;-6.196;2022-10-30T04:16:12;13.70;99.90
35920;DHT22;36160;53.370;-6.196;2022-10-30T04:18:37;13.60;99.90
35920;DHT22;36160;53.370;-6.196;2022-10-30T04:21:03;13.60;99.90
35920;DHT22;36160;53.370;-6.196;2022-10-30T04:23:29;13.80;99.90
35920;DHT22;36160;53.370;-6.196;2022-10-30T04:25:54;13.60;99.90
35920;DHT22;36160;53.370;-6.196;2022-10-30T04:28:20;13.70;99.90
35920;DHT22;36160;53.370;-6.196;2022-10-30T04:30:46;13.80;99.90
35920;DHT22;36160;53.370;-6.196;2022-10-30T04:33:13;13.70;99.90
35920;DHT22;36160;53.370;-6.196;2022-10-30T04:35:39;13.70;99.90
35920;DHT22;36160;53.370;-6.196;2022-10-30T04:38:07;13.60;99.90
35920;DHT22;36160;53.370;-6.196;2022-10-30T04:40:36;13.70;99.90
35920;DHT22;36160;53.370;-6.196;2022-10-30T04:43:02;13.60;99.90
35920;DHT22;36160;53.370;-6.196;2022-10-30T04:45:28;13.70;99.90
35920;DHT22;36160;53.370;-6.196;2022-10-30T04:48:03;13.70;99.90
35920;DHT22;36160;53.370;-6.196;2022-10-30T04:50:30;13.80;99.90
35920;DHT22;36160;53.370;-6.196;2022-10-30T04:53:07;13.70;99.90
35920;DHT22;36160;53.370;-6.196;2022-10-30T04:55:34;13.80;99.90
35920;DHT22;36160;53.370;-6.196;2022-10-30T04:58:00;13.80;99.90
35920;DHT22;36160;53.370;-6.196;2022-10-30T05:00:30;13.80;99.90
35920;DHT22;36160;53.370;-6.196;2022-10-30T05:03:02;13.70;99.90
35920;DHT22;36160;53.370;-6.196;2022-10-30T05:05:29;13.80;99.90
35920;DHT22;36160;53.370;-6.196;2022-10-30T05:07:54;13.70;99.90
35920;DHT22;36160;53.370;-6.196;2022-10-30T05:10:20;13.70;99.90
35920;DHT22;36160;53.370;-6.196;2022-10-30T05:12:46;13.70;99.90
35920;DHT22;36160;53.370;-6.196;2022-10-30T05:15:12;13.60;99.90
35920;DHT22;36160;53.370;-6.196;2022-10-30T05:17:38;13.50;99.90
35920;DHT22;36160;53.370;-6.196;2022-10-30T05:20:05;13.60;99.90
35920;DHT22;36160;53.370;-6.196;2022-10-30T05:22:31;13.40;99.90
35920;DHT22;36160;53.370;-6.196;2022-10-30T05:24:57;13.40;99.90
35920;DHT22;36160;53.370;-6.196;2022-10-30T05:27:22;13.40;99.90
35920;DHT22;36160;53.370;-6.196;2022-10-30T05:29:48;13.30;99.90
35920;DHT22;36160;53.370;-6.196;2022-10-30T05:32:14;13.20;99.90
35920;DHT22;36160;53.370;-6.196;2022-10-30T05:34:40;13.20;99.90
35920;DHT22;36160;53.370;-6.196;2022-10-30T05:37:06;13.30;99.90
35920;DHT22;36160;53.370;-6.196;2022-10-30T05:39:31;13.20;99.90
35920;DHT22;36160;53.370;-6.196;2022-10-30T05:41:57;13.20;99.90
35920;DHT22;36160;53.370;-6.196;2022-10-30T05:44:22;13.10;99.90
35920;DHT22;36160;53.370;-6.196;2022-10-30T05:46:48;13.10;99.90
35920;DHT22;36160;53.370;-6.196;2022-10-30T05:49:14;13.20;99.90
35920;DHT22;36160;53.370;-6.196;2022-10-30T05:51:39;13.20;99.90
35920;DHT22;36160;53.370;-6.196;2022-10-30T05:54:05;13.10;99.90
35920;DHT22;36160;53.370;-6.196;2022-10-30T05:56:31;13.10;99.90
35920;DHT22;36160;53.370;-6.196;2022-10-30T05:58:56;13.10;99.90
35920;DHT22;36160;53.370;-6.196;2022-10-30T06:01:22;13.00;99.90
35920;DHT22;36160;53.370;-6.196;2022-10-30T06:03:48;13.00;99.90
35920;DHT22;36160;53.370;-6.196;2022-10-30T06:06:13;13.10;99.90
35920;DHT22;36160;53.370;-6.196;2022-10-30T06:08:39;13.10;99.90
35920;DHT22;36160;53.370;-6.196;2022-10-30T06:11:04;12.90;99.90
35920;DHT22;36160;53.370;-6.196;2022-10-30T06:13:30;12.90;99.90
35920;DHT22;36160;53.370;-6.196;2022-10-30T06:15:56;13.00;99.90
35920;DHT22;36160;53.370;-6.196;2022-10-30T06:18:22;12.90;99.90
35920;DHT22;36160;53.370;-6.196;2022-10-30T06:20:48;12.90;99.90
35920;DHT22;36160;53.370;-6.196;2022-10-30T06:23:13;13.00;99.90
35920;DHT22;36160;53.370;-6.196;2022-10-30T06:25:40;12.90;99.90
35920;DHT22;36160;53.370;-6.196;2022-10-30T06:28:05;12.90;99.90
35920;DHT22;36160;53.370;-6.196;2022-10-30T06:30:31;12.90;99.90
35920;DHT22;36160;53.370;-6.196;2022-10-30T06:32:58;12.90;99.90
35920;DHT22;36160;53.370;-6.196;2022-10-30T06:35:24;12.90;99.90
35920;DHT22;36160;53.370;-6.196;2022-10-30T06:37:51;12.80;99.90
35920;DHT22;36160;53.370;-6.196;2022-10-30T06:40:18;12.70;99.90
35920;DHT22;36160;53.370;-6.196;2022-10-30T06:42:49;12.60;99.90
35920;DHT22;36160;53.370;-6.196;2022-10-30T06:45:16;12.60;99.90
35920;DHT22;36160;53.370;-6.196;2022-10-30T06:47:43;12.50;99.90
35920;DHT22;36160;53.370;-6.196;2022-10-30T06:50:12;12.50;99.90
35920;DHT22;36160;53.370;-6.196;2022-10-30T06:52:38;12.30;99.90
35920;DHT22;36160;53.370;-6.196;2022-10-30T06:55:05;12.30;99.90
35920;DHT22;36160;53.370;-6.196;2022-10-30T06:57:31;12.30;99.90
35920;DHT22;36160;53.370;-6.196;2022-10-30T06:59:57;12.20;99.90
35920;DHT22;36160;53.370;-6.196;2022-10-30T07:02:31;12.10;99.90
35920;DHT22;36160;53.370;-6.196;2022-10-30T07:04:57;12.10;99.90
35920;DHT22;36160;53.370;-6.196;2022-10-30T07:07:22;12.10;99.90
35920;DHT22;36160;53.370;-6.196;2022-10-30T07:10:03;12.10;99.90
35920;DHT22;36160;53.370;-6.196;2022-10-30T07:12:32;12.10;99.90
35920;DHT22;36160;53.370;-6.196;2022-10-30T07:14:57;12.10;99.90
35920;DHT22;36160;53.370;-6.196;2022-10-30T07:17:23;11.90;99.90
35920;DHT22;36160;53.370;-6.196;2022-10-30T07:19:49;11.90;99.90
35920;DHT22;36160;53.370;-6.196;2022-10-30T07:22:27;12.00;99.90
35920;DHT22;36160;53.370;-6.196;2022-10-30T07:24:59;12.00;99.90
35920;DHT22;36160;53.370;-6.196;2022-10-30T07:27:25;12.00;99.90
35920;DHT22;36160;53.370;-6.196;2022-10-30T07:29:50;11.90;99.90
35920;DHT22;36160;53.370;-6.196;2022-10-30T07:32:16;11.90;99.90
35920;DHT22;36160;53.370;-6.196;2022-10-30T07:34:42;11.90;99.90
35920;DHT22;36160;53.370;-6.196;2022-10-30T07:37:07;11.90;99.90
35920;DHT22;36160;53.370;-6.196;2022-10-30T07:39:33;11.90;99.90
35920;DHT22;36160;53.370;-6.196;2022-10-30T07:41:59;11.90;99.90
35920;DHT22;36160;53.370;-6.196;2022-10-30T07:44:24;11.90;99.90
35920;DHT22;36160;53.370;-6.196;2022-10-30T07:46:50;11.90;99.90
35920;DHT22;36160;53.370;-6.196;2022-10-30T07:49:16;11.90;99.90
35920;DHT22;36160;53.370;-6.196;2022-10-30T07:51:41;11.90;99.90
35920;DHT22;36160;53.370;-6.196;2022-10-30T07:54:07;11.90;99.90
35920;DHT22;36160;53.370;-6.196;2022-10-30T07:56:32;11.90;99.90
35920;DHT22;36160;53.370;-6.196;2022-10-30T07:58:58;12.00;99.90
35920;DHT22;36160;53.370;-6.196;2022-10-30T08:01:24;11.80;99.90
35920;DHT22;36160;53.370;-6.196;2022-10-30T08:03:49;11.90;99.90
35920;DHT22;36160;53.370;-6.196;2022-10-30T08:06:15;12.00;99.90
35920;DHT22;36160;53.370;-6.196;2022-10-30T08:08:40;12.00;99.90
35920;DHT22;36160;53.370;-6.196;2022-10-30T08:11:06;12.00;99.90
35920;DHT22;36160;53.370;-6.196;2022-10-30T08:13:32;12.10;99.90
35920;DHT22;36160;53.370;-6.196;2022-10-30T08:15:57;12.20;99.90
35920;DHT22;36160;53.370;-6.196;2022-10-30T08:18:23;12.10;99.90
35920;DHT22;36160;53.370;-6.196;2022-10-30T08:20:49;12.10;99.90
35920;DHT22;36160;53.370;-6.196;2022-10-30T08:23:15;12.20;99.90
35920;DHT22;36160;53.370;-6.196;2022-10-30T08:25:44;12.20;99.90
35920;DHT22;36160;53.370;-6.196;2022-10-30T08:28:10;12.20;99.90
35920;DHT22;36160;53.370;-6.196;2022-10-30T08:30:36;12.20;99.90
35920;DHT22;36160;53.370;-6.196;2022-10-30T08:33:05;12.20;99.90
35920;DHT22;36160;53.370;-6.196;2022-10-30T08:35:31;12.20;99.90
35920;DHT22;36160;53.370;-6.196;2022-10-30T08:37:58;12.20;99.90
35920;DHT22;36160;53.370;-6.196;2022-10-30T08:40:25;12.20;99.90
35920;DHT22;36160;53.370;-6.196;2022-10-30T08:42:55;12.30;99.90
35920;DHT22;36160;53.370;-6.196;2022-10-30T08:45:22;12.20;99.90
35920;DHT22;36160;53.370;-6.196;2022-10-30T08:47:56;12.30;99.90
35920;DHT22;36160;53.370;-6.196;2022-10-30T08:50:22;12.20;99.90
35920;DHT22;36160;53.370;-6.196;2022-10-30T08:52:48;12.20;99.90
35920;DHT22;36160;53.370;-6.196;2022-10-30T08:55:13;12.20;99.90
35920;DHT22;36160;53.370;-6.196;2022-10-30T08:57:39;12.40;99.90
35920;DHT22;36160;53.370;-6.196;2022-10-30T09:00:05;12.40;99.90
35920;DHT22;36160;53.370;-6.196;2022-10-30T09:02:31;12.50;99.90
35920;DHT22;36160;53.370;-6.196;2022-10-30T09:04:57;12.50;99.90
35920;DHT22;36160;53.370;-6.196;2022-10-30T09:07:23;12.70;99.90
35920;DHT22;36160;53.370;-6.196;2022-10-30T09:09:49;12.60;99.90
35920;DHT22;36160;53.370;-6.196;2022-10-30T09:12:14;12.80;99.90
35920;DHT22;36160;53.370;-6.196;2022-10-30T09:14:41;12.80;99.90
35920;DHT22;36160;53.370;-6.196;2022-10-30T09:17:06;13.00;99.90
35920;DHT22;36160;53.370;-6.196;2022-10-30T09:19:32;13.00;99.90
35920;DHT22;36160;53.370;-6.196;2022-10-30T09:21:58;13.10;99.90
35920;DHT22;36160;53.370;-6.196;2022-10-30T09:24:23;13.10;99.90
35920;DHT22;36160;53.370;-6.196;2022-10-30T09:26:49;13.20;99.90
35920;DHT22;36160;53.370;-6.196;2022-10-30T09:29:14;13.20;99.90
35920;DHT22;36160;53.370;-6.196;2022-10-30T09:31:40;13.30;99.90
35920;DHT22;36160;53.370;-6.196;2022-10-30T09:34:06;13.30;99.90
35920;DHT22;36160;53.370;-6.196;2022-10-30T09:36:32;13.40;99.90
35920;DHT22;36160;53.370;-6.196;2022-10-30T09:38:57;13.50;99.90
35920;DHT22;36160;53.370;-6.196;2022-10-30T09:47:53;13.70;99.90
35920;DHT22;36160;53.370;-6.196;2022-10-30T09:55:35;13.70;99.90
35920;DHT22;36160;53.370;-6.196;2022-10-30T10:06:43;13.90;99.90
35920;DHT22;36160;53.370;-6.196;2022-10-30T10:09:19;13.90;99.90
35920;DHT22;36160;53.370;-6.196;2022-10-30T10:14:55;14.00;98.20
35920;DHT22;36160;53.370;-6.196;2022-10-30T10:17:33;14.10;93.90
35920;DHT22;36160;53.370;-6.196;2022-10-30T10:20:02;13.90;97.40
35920;DHT22;36160;53.370;-6.196;2022-10-30T10:22:31;14.00;97.70
35920;DHT22;36160;53.370;-6.196;2022-10-30T10:25:13;14.00;96.90
35920;DHT22;36160;53.370;-6.196;2022-10-30T10:28:18;14.00;99.20
35920;DHT22;36160;53.370;-6.196;2022-10-30T10:33:29;14.00;99.90
35920;DHT22;36160;53.370;-6.196;2022-10-30T10:36:22;14.00;99.90
35920;DHT22;36160;53.370;-6.196;2022-10-30T10:39:32;14.00;99.90
35920;DHT22;36160;53.370;-6.196;2022-10-30T10:45:04;13.90;99.90
35920;DHT22;36160;53.370;-6.196;2022-10-30T10:52:52;13.90;99.90
35920;DHT22;36160;53.370;-6.196;2022-10-30T10:55:23;13.90;99.90
35920;DHT22;36160;53.370;-6.196;2022-10-30T10:57:51;14.00;99.90
35920;DHT22;36160;53.370;-6.196;2022-10-30T11:00:21;13.90;99.90
35920;DHT22;36160;53.370;-6.196;2022-10-30T11:03:00;14.00;99.90
35920;DHT22;36160;53.370;-6.196;2022-10-30T11:05:33;14.00;99.90
35920;DHT22;36160;53.370;-6.196;2022-10-30T11:08:17;14.00;99.90
35920;DHT22;36160;53.370;-6.196;2022-10-30T11:10:46;13.90;99.90
35920;DHT22;36160;53.370;-6.196;2022-10-30T11:13:13;14.10;99.90
35920;DHT22;36160;53.370;-6.196;2022-10-30T11:16:08;14.10;99.90
35920;DHT22;36160;53.370;-6.196;2022-10-30T11:18:38;14.30;99.90
35920;DHT22;36160;53.370;-6.196;2022-10-30T11:21:23;14.30;99.90
35920;DHT22;36160;53.370;-6.196;2022-10-30T11:23:50;14.20;99.90
35920;DHT22;36160;53.370;-6.196;2022-10-30T11:29:08;14.20;99.90
35920;DHT22;36160;53.370;-6.196;2022-10-30T11:31:38;14.30;99.90
35920;DHT22;36160;53.370;-6.196;2022-10-30T11:34:23;14.30;99.90
35920;DHT22;36160;53.370;-6.196;2022-10-30T11:36:51;14.30;99.10
35920;DHT22;36160;53.370;-6.196;2022-10-30T11:44:28;14.40;94.90
35920;DHT22;36160;53.370;-6.196;2022-10-30T11:46:55;14.40;95.80
35920;DHT22;36160;53.370;-6.196;2022-10-30T11:52:18;14.30;93.70
35920;DHT22;36160;53.370;-6.196;2022-10-30T11:54:50;14.30;93.60
35920;DHT22;36160;53.370;-6.196;2022-10-30T11:57:23;14.20;93.90
35920;DHT22;36160;53.370;-6.196;2022-10-30T11:59:54;14.20;97.10
35920;DHT22;36160;53.370;-6.196;2022-10-30T12:02:28;14.10;99.90
35920;DHT22;36160;53.370;-6.196;2022-10-30T12:10:31;14.00;99.90
35920;DHT22;36160;53.370;-6.196;2022-10-30T12:13:03;14.10;99.90
35920;DHT22;36160;53.370;-6.196;2022-10-30T12:15:37;14.10;99.90
35920;DHT22;36160;53.370;-6.196;2022-10-30T12:18:05;14.10;95.70
35920;DHT22;36160;53.370;-6.196;2022-10-30T12:20:32;14.20;83.60
35920;DHT22;36160;53.370;-6.196;2022-10-30T12:23:11;14.30;75.50
35920;DHT22;36160;53.370;-6.196;2022-10-30T12:25:45;14.50;76.10
35920;DHT22;36160;53.370;-6.196;2022-10-30T12:28:23;14.60;82.10
35920;DHT22;36160;53.370;-6.196;2022-10-30T12:31:04;14.60;76.10
35920;DHT22;36160;53.370;-6.196;2022-10-30T12:36:05;14.70;77.20
35920;DHT22;36160;53.370;-6.196;2022-10-30T12:38:44;14.70;72.40
35920;DHT22;36160;53.370;-6.196;2022-10-30T12:41:25;14.60;63.70
35920;DHT22;36160;53.370;-6.196;2022-10-30T12:44:03;14.50;61.90
35920;DHT22;36160;53.370;-6.196;2022-10-30T12:46:48;14.50;66.00
35920;DHT22;36160;53.370;-6.196;2022-10-30T12:54:53;14.40;68.80
35920;DHT22;36160;53.370;-6.196;2022-10-30T12:58:00;14.50;68.00
35920;DHT22;36160;53.370;-6.196;2022-10-30T13:00:17;14.50;69.00
35920;DHT22;36160;53.370;-6.196;2022-10-30T13:03:12;14.60;74.70
35920;DHT22;36160;53.370;-6.196;2022-10-30T13:11:19;14.80;76.50
35920;DHT22;36160;53.370;-6.196;2022-10-30T13:13:49;14.60;79.60
35920;DHT22;36160;53.370;-6.196;2022-10-30T13:16:26;14.60;83.80
35920;DHT22;36160;53.370;-6.196;2022-10-30T13:19:00;14.60;80.20
35920;DHT22;36160;53.370;-6.196;2022-10-30T13:27:36;14.80;72.70
35920;DHT22;36160;53.370;-6.196;2022-10-30T13:36:18;15.00;52.10
35920;DHT22;36160;53.370;-6.196;2022-10-30T13:38:32;15.10;52.80
35920;DHT22;36160;53.370;-6.196;2022-10-30T13:41:12;15.10;54.40
35920;DHT22;36160;53.370;-6.196;2022-10-30T13:46:57;15.20;52.50
35920;DHT22;36160;53.370;-6.196;2022-10-30T13:52:36;15.10;54.20
35920;DHT22;36160;53.370;-6.196;2022-10-30T13:55:23;15.00;44.40
35920;DHT22;36160;53.370;-6.196;2022-10-30T13:58:07;15.00;42.80
35920;DHT22;36160;53.370;-6.196;2022-10-30T14:01:15;15.10;42.70
35920;DHT22;36160;53.370;-6.196;2022-10-30T14:03:47;15.00;41.10
35920;DHT22;36160;53.370;-6.196;2022-10-30T14:06:40;15.10;42.40
35920;DHT22;36160;53.370;-6.196;2022-10-30T14:09:32;15.20;43.70
35920;DHT22;36160;53.370;-6.196;2022-10-30T14:12:41;15.20;25.80
35920;DHT22;36160;53.370;-6.196;2022-10-30T14:14:47;15.20;21.00
35920;DHT22;36160;53.370;-6.196;2022-10-30T14:17:15;15.20;25.50
35920;DHT22;36160;53.370;-6.196;2022-10-30T14:22:33;15.20;18.00
35920;DHT22;36160;53.370;-6.196;2022-10-30T14:24:59;15.20;19.60
35920;DHT22;36160;53.370;-6.196;2022-10-30T14:27:30;15.10;21.70
35920;DHT22;36160;53.370;-6.196;2022-10-30T14:29:57;15.10;23.80
35920;DHT22;36160;53.370;-6.196;2022-10-30T14:37:16;15.10;25.10
35920;DHT22;36160;53.370;-6.196;2022-10-30T14:39:46;15.00;27.40
35920;DHT22;36160;53.370;-6.196;2022-10-30T14:58:39;14.90;24.90
35920;DHT22;36160;53.370;-6.196;2022-10-30T15:03:55;14.80;35.80
35920;DHT22;36160;53.370;-6.196;2022-10-30T15:06:54;14.80;34.30
35920;DHT22;36160;53.370;-6.196;2022-10-30T15:14:47;14.80;42.70
35920;DHT22;36160;53.370;-6.196;2022-10-30T15:17:29;14.80;36.20
35920;DHT22;36160;53.370;-6.196;2022-10-30T15:19:58;14.80;37.40
35920;DHT22;36160;53.370;-6.196;2022-10-30T15:22:25;14.70;29.20
35920;DHT22;36160;53.370;-6.196;2022-10-30T15:24:51;14.70;32.60
35920;DHT22;36160;53.370;-6.196;2022-10-30T15:27:19;14.80;31.20
35920;DHT22;36160;53.370;-6.196;2022-10-30T15:29:51;14.80;31.20
35920;DHT22;36160;53.370;-6.196;2022-10-30T15:32:19;14.70;27.90
35920;DHT22;36160;53.370;-6.196;2022-10-30T15:34:59;14.70;30.20
35920;DHT22;36160;53.370;-6.196;2022-10-30T15:37:28;14.70;31.50
35920;DHT22;36160;53.370;-6.196;2022-10-30T15:40:16;14.60;28.60
35920;DHT22;36160;53.370;-6.196;2022-10-30T15:42:43;14.60;25.40
35920;DHT22;36160;53.370;-6.196;2022-10-30T15:45:22;14.60;27.20
35920;DHT22;36160;53.370;-6.196;2022-10-30T15:48:07;14.60;31.00
35920;DHT22;36160;53.370;-6.196;2022-10-30T15:50:34;14.50;36.00
35920;DHT22;36160;53.370;-6.196;2022-10-30T15:53:22;14.60;39.60
35920;DHT22;36160;53.370;-6.196;2022-10-30T15:55:49;14.40;41.40
35920;DHT22;36160;53.370;-6.196;2022-10-30T15:58:19;14.40;44.30
35920;DHT22;36160;53.370;-6.196;2022-10-30T16:00:58;14.40;39.50
35920;DHT22;36160;53.370;-6.196;2022-10-30T16:03:24;14.40;43.40
35920;DHT22;36160;53.370;-6.196;2022-10-30T16:05:50;14.40;47.90
35920;DHT22;36160;53.370;-6.196;2022-10-30T16:08:27;14.30;48.80
35920;DHT22;36160;53.370;-6.196;2022-10-30T16:10:53;14.30;50.60
35920;DHT22;36160;53.370;-6.196;2022-10-30T16:13:29;14.30;48.50
35920;DHT22;36160;53.370;-6.196;2022-10-30T16:15:56;14.30;50.90
35920;DHT22;36160;53.370;-6.196;2022-10-30T16:18:24;14.20;54.30
35920;DHT22;36160;53.370;-6.196;2022-10-30T16:20:56;14.20;50.40
35920;DHT22;36160;53.370;-6.196;2022-10-30T16:23:23;14.10;57.40
35920;DHT22;36160;53.370;-6.196;2022-10-30T16:25:54;14.20;53.30
35920;DHT22;36160;53.370;-6.196;2022-10-30T16:28:26;14.10;56.30
35920;DHT22;36160;53.370;-6.196;2022-10-30T16:30:53;14.10;58.70
35920;DHT22;36160;53.370;-6.196;2022-10-30T16:33:25;14.10;63.20
35920;DHT22;36160;53.370;-6.196;2022-10-30T16:35:52;14.00;65.30
35920;DHT22;36160;53.370;-6.196;2022-10-30T16:38:19;13.90;70.30
35920;DHT22;36160;53.370;-6.196;2022-10-30T16:40:46;13.90;65.60
35920;DHT22;36160;53.370;-6.196;2022-10-30T16:45:49;13.80;72.20
35920;DHT22;36160;53.370;-6.196;2022-10-30T16:48:19;13.80;76.20
35920;DHT22;36160;53.370;-6.196;2022-10-30T16:50:46;13.80;77.20
35920;DHT22;36160;53.370;-6.196;2022-10-30T16:53:20;13.80;85.50
35920;DHT22;36160;53.370;-6.196;2022-10-30T16:55:47;13.70;82.40
35920;DHT22;36160;53.370;-6.196;2022-10-30T16:58:14;13.70;87.50
35920;DHT22;36160;53.370;-6.196;2022-10-30T17:00:50;13.70;90.50
35920;DHT22;36160;53.370;-6.196;2022-10-30T17:03:19;13.70;92.00
35920;DHT22;36160;53.370;-6.196;2022-10-30T17:06:01;13.60;93.80
35920;DHT22;36160;53.370;-6.196;2022-10-30T17:08:35;13.50;96.30
35920;DHT22;36160;53.370;-6.196;2022-10-30T17:11:05;13.50;97.50
35920;DHT22;36160;53.370;-6.196;2022-10-30T17:13:39;13.50;97.80
35920;DHT22;36160;53.370;-6.196;2022-10-30T17:16:31;13.50;99.10
35920;DHT22;36160;53.370;-6.196;2022-10-30T17:21:58;13.40;99.90
35920;DHT22;36160;53.370;-6.196;2022-10-30T17:24:31;13.50;99.90
35920;DHT22;36160;53.370;-6.196;2022-10-30T17:27:02;13.40;99.10
35920;DHT22;36160;53.370;-6.196;2022-10-30T17:32:27;13.50;98.60
35920;DHT22;36160;53.370;-6.196;2022-10-30T17:35:16;13.40;97.30
35920;DHT22;36160;53.370;-6.196;2022-10-30T17:37:44;13.40;97.50
35920;DHT22;36160;53.370;-6.196;2022-10-30T17:40:11;13.40;96.80
35920;DHT22;36160;53.370;-6.196;2022-10-30T17:42:37;13.40;97.00
35920;DHT22;36160;53.370;-6.196;2022-10-30T17:45:08;13.40;97.90
35920;DHT22;36160;53.370;-6.196;2022-10-30T17:47:36;13.30;99.50
35920;DHT22;36160;53.370;-6.196;2022-10-30T17:50:03;13.30;99.90
35920;DHT22;36160;53.370;-6.196;2022-10-30T17:52:30;13.30;99.90
35920;DHT22;36160;53.370;-6.196;2022-10-30T17:54:56;13.30;99.90
35920;DHT22;36160;53.370;-6.196;2022-10-30T17:57:22;13.30;99.90